Inland, Nebraska
Current Conditions -  °F | °C
As of 3:53 AM on Friday 31 Oct 2014 (Local Time) from KHSI Reporting Station
Overcast Overcast  
Wind Chill: 26°   Ceiling: 1800
Heat Index: 36°   Visibility: 10mi
Dew Point: 28°   Wind: 16mph
Humidity: 73%   Direction: 10°N
Pressure: 30.48"   Gusts: NA
Location:  40.6°N, 98.22°W
Report Text: KHSI 310853Z AUTO 01014KT 10SM OVC018 02/M02 A3048 RMK AO2 SLP325 T00221022 51019
Loading
Personal Weather Stations






























Interactive Weather Map
Tropical Storm Tracking
New forecast layout! Learn more

10-Day Weather Forecast

Advertisements
Track Severe Weather on mobile